Time;durP1;ratioP1;P1;durP2;ratioP2;P2;SDS_P1;SDS_P2;PMS_P1;PMS_P2;Temp;Humidity;BMP_temperature;BMP_pressure;BME280_temperature;BME280_humidity;BME280_pressure;Samples;Min_cycle;Max_cycle;Signal;HPM_P1;HPM_P2
2023/04/05 00:01:46;;;;;;;;;;;;;;;;;;;;;
2023/04/05 00:09:17;;;;;;;2.40;2.20;;;;;;;0.15;88.16;95293.98;110085;1279;22283;-62
2023/04/05 00:12:58;;;;;;;;;;;;;;;;;;;;;
2023/04/05 00:16:46;;;;;;;;;;;;;;;;;;;;;
2023/04/05 00:20:21;;;;;;;;;;;;;;;;;;;;;
2023/04/05 00:24:15;;;;;;;;;;;;;;;;;;;;;
2023/04/05 00:27:55;;;;;;;;;;;;;;;;;;;;;
2023/04/05 00:31:25;;;;;;;2.20;2.00;;;;;;;0.58;87.96;95279.58;110268;1260;22115;-62
2023/04/05 00:35:15;;;;;;;2.60;2.30;;;;;;;0.63;87.74;95274.47;110118;1279;22781;-62
2023/04/05 00:38:30;;;;;;;;;;;;;;;;;;;;;
2023/04/05 00:42:13;;;;;;;3.00;2.10;;;;;;;0.83;87.49;95279.95;110238;1279;22174;-62
2023/04/05 00:46:02;;;;;;;2.90;2.50;;;;;;;0.82;86.50;95277.52;110138;1279;22140;-62
2023/04/05 00:49:51;;;;;;;2.60;2.10;;;;;;;0.92;86.69;95275.90;110085;1280;22155;-62
2023/04/05 00:53:57;;;;;;;3.00;2.50;;;;;;;0.88;86.19;95274.99;110129;1279;22104;-62
2023/04/05 00:57:13;;;;;;;3.00;1.90;;;;;;;0.88;86.26;95271.35;110168;1279;22450;-62
2023/04/05 01:00:53;;;;;;;1.30;1.20;;;;;;;0.78;84.89;95273.84;110238;1279;22180;-62
2023/04/05 01:08:52;;;;;;;1.50;1.20;;;;;;;0.74;84.91;95268.73;110207;1279;22738;-62
2023/04/05 01:12:25;;;;;;;;;;;;;;;;;;;;;
2023/04/05 01:15:59;;;;;;;;;;;;;;;;;;;;;
2023/04/05 01:19:46;;;;;;;1.40;0.90;;;;;;;0.55;84.08;95273.66;110070;1280;22340;-62
2023/04/05 01:23:33;;;;;;;1.00;0.90;;;;;;;0.42;84.36;95272.96;110072;1279;22105;-62
2023/04/05 01:27:13;;;;;;;;;;;;;;;;;;;;;
2023/04/05 01:30:57;;;;;;;1.40;1.10;;;;;;;0.27;85.23;95277.04;110241;1279;22302;-62
2023/04/05 01:34:38;;;;;;;;;;;;;;;;;;;;;
2023/04/05 01:37:55;;;;;;;1.10;0.90;;;;;;;0.21;85.77;95275.39;110251;1280;22197;-62
2023/04/05 01:40:46;;;;;;;;;;;;;;;;;;;;;
2023/04/05 01:44:36;;;;;;;0.90;0.90;;;;;;;0.22;85.75;95274.88;110122;1279;23010;-62
2023/04/05 01:48:19;;;;;;;1.60;0.90;;;;;;;0.18;85.66;95269.63;110173;1279;22113;-62
2023/04/05 01:51:59;;;;;;;;;;;;;;;;;;;;;
2023/04/05 01:55:08;;;;;;;1.40;1.10;;;;;;;0.11;86.20;95270.75;110108;1279;22179;-62
2023/04/05 01:58:34;;;;;;;1.30;0.90;;;;;;;0.06;86.28;95275.16;110227;1279;22142;-62
2023/04/05 02:02:13;;;;;;;;;;;;;;;;;;;;;
2023/04/05 02:09:37;;;;;;;;;;;;;;;;;;;;;
2023/04/05 02:12:46;;;;;;;1.50;1.20;;;;;;;-0.14;85.98;95277.58;110086;1279;22143;-62
2023/04/05 02:16:33;;;;;;;1.30;1.10;;;;;;;-0.17;86.09;95279.27;110234;1279;22127;-62
2023/04/05 02:19:39;;;;;;;1.20;1.10;;;;;;;-0.23;86.31;95273.64;110085;1279;22130;-62
2023/04/05 02:23:30;;;;;;;3.30;2.00;;;;;;;-0.21;86.64;95272.96;110037;1279;22108;-62
2023/04/05 02:27:00;;;;;;;2.60;1.90;;;;;;;-0.21;86.50;95271.94;110145;1279;22156;-62
2023/04/05 02:30:19;;;;;;;;;;;;;;;;;;;;;
2023/04/05 02:34:02;;;;;;;1.60;1.40;;;;;;;-0.04;87.21;95265.81;110244;1279;22609;-64
2023/04/05 02:37:07;;;;;;;;;;;;;;;;;;;;;
2023/04/05 02:40:27;;;;;;;1.60;1.40;;;;;;;0.21;86.50;95266.92;110259;1274;22146;-62
2023/04/05 02:44:06;;;;;;;;;;;;;;;;;;;;;
2023/04/05 02:47:49;;;;;;;2.20;1.70;;;;;;;0.40;86.21;95270.16;110205;1279;22181;-62
2023/04/05 02:51:29;;;;;;;;;;;;;;;;;;;;;
2023/04/05 02:54:38;;;;;;;3.50;2.20;;;;;;;0.42;84.78;95265.52;110099;1279;22956;-62
2023/04/05 03:01:35;;;;;;;4.00;2.80;;;;;;;0.57;85.36;95267.28;110078;1279;22173;-62
2023/04/05 03:05:26;;;;;;;2.30;2.10;;;;;;;0.64;84.70;95263.07;110151;1279;22184;-62
2023/04/05 03:09:07;;;;;;;;;;;;;;;;;;;;;
2023/04/05 03:12:57;;;;;;;4.20;3.00;;;;;;;0.55;84.69;95261.71;110098;1279;22084;-62
2023/04/05 03:16:30;;;;;;;;;;;;;;;;;;;;;
2023/04/05 03:20:13;;;;;;;40.00;15.20;;;;;;;0.42;83.84;95269.67;110237;1279;22101;-62
2023/04/05 03:27:21;;;;;;;2.90;2.30;;;;;;;0.40;84.42;95274.65;110040;1279;22119;-62
2023/04/05 03:31:12;;;;;;;6.30;3.70;;;;;;;0.36;84.35;95270.63;110151;1279;22246;-62
2023/04/05 03:34:37;;;;;;;;;;;;;;;;;;;;;
2023/04/05 03:37:42;;;;;;;;;;;;;;;;;;;;;
2023/04/05 03:41:51;;;;;;;2.90;2.40;;;;;;;0.10;85.48;95269.52;110108;1279;22106;-62
2023/04/05 03:44:58;;;;;;;3.00;2.00;;;;;;;0.08;85.43;95269.14;109988;1278;22611;-62
2023/04/05 03:48:47;;;;;;;2.70;2.20;;;;;;;0.04;85.49;95269.94;110174;1278;22112;-62
2023/04/05 03:51:50;;;;;;;3.10;2.50;;;;;;;0.01;85.57;95274.55;110102;1278;22185;-62
2023/04/05 03:54:52;;;;;;;;;;;;;;;;;;;;;
2023/04/05 03:58:34;;;;;;;;;;;;;;;;;;;;;
2023/04/05 04:02:06;;;;;;;7.70;4.80;;;;;;;-0.14;85.85;95282.08;110156;1278;22128;-62
2023/04/05 04:05:55;;;;;;;9.60;4.60;;;;;;;-0.16;86.85;95284.29;110181;1278;22852;-62
2023/04/05 04:09:44;;;;;;;7.60;4.70;;;;;;;-0.19;86.94;95285.10;110140;1278;22210;-62
2023/04/05 04:13:03;;;;;;;7.00;4.30;;;;;;;-0.19;86.99;95286.29;110127;1278;23056;-62
2023/04/05 04:16:33;;;;;;;;;;;;;;;;;;;;;
2023/04/05 04:20:23;;;;;;;4.30;3.40;;;;;;;-0.22;86.56;95285.92;110151;1278;22357;-62
2023/04/05 04:24:27;;;;;;;;;;;;;;;;;;;;;
2023/04/05 04:31:54;;;;;;;;;;;;;;;;;;;;;
2023/04/05 04:35:23;;;;;;;22.10;10.80;;;;;;;-0.26;87.25;95289.13;110004;1278;22126;-62
2023/04/05 04:39:26;;;;;;;14.10;7.90;;;;;;;-0.18;87.62;95293.06;109971;1279;22917;-62
2023/04/05 04:42:57;;;;;;;13.80;7.90;;;;;;;-0.10;87.70;95290.96;109667;1279;22763;-62
2023/04/05 04:50:45;;;;;;;;;;;;;;;;;;;;;
2023/04/05 04:58:09;;;;;;;;;;;;;;;;;;;;;
2023/04/05 05:01:43;;;;;;;;;;;;;;;;;;;;;
2023/04/05 05:05:26;;;;;;;12.60;7.90;;;;;;;0.50;85.08;95294.17;110055;1279;22948;-61
2023/04/05 05:09:14;;;;;;;10.10;7.50;;;;;;;0.61;85.84;95295.55;110102;1259;22097;-63
2023/04/05 05:13:10;;;;;;;8.50;5.70;;;;;;;0.83;85.32;95295.87;110094;1279;22249;-64
2023/04/05 05:16:58;;;;;;;7.90;5.40;;;;;;;0.99;84.89;95297.48;110023;1279;23047;-64
2023/04/05 05:20:39;;;;;;;;;;;;;;;;;;;;;
2023/04/05 05:24:28;;;;;;;8.10;5.60;;;;;;;0.95;83.39;95300.70;110083;1279;22145;-64
2023/04/05 05:27:57;;;;;;;4.70;3.60;;;;;;;0.88;83.16;95301.48;110060;1279;22272;-64
2023/04/05 05:31:46;;;;;;;5.90;4.00;;;;;;;0.82;83.06;95301.05;110061;1279;22270;-65
2023/04/05 05:35:44;;;;;;;5.90;4.60;;;;;;;0.90;83.52;95303.24;110091;1279;22141;-63
2023/04/05 05:39:30;;;;;;;;;;;;;;;;;;;;;
2023/04/05 05:43:12;;;;;;;;;;;;;;;;;;;;;
2023/04/05 05:50:31;;;;;;;15.90;10.10;;;;;;;1.08;83.03;95302.44;110078;1279;22222;-63
2023/04/05 05:54:10;;;;;;;22.50;12.40;;;;;;;1.12;83.03;95298.52;110125;1279;22282;-65
2023/04/05 05:57:31;;;;;;;14.60;9.60;;;;;;;1.21;82.80;95302.95;110166;1279;22099;-64
2023/04/05 06:04:53;;;;;;;;;;;;;;;;;;;;;
2023/04/05 06:08:46;;;;;;;25.10;12.30;;;;;;;1.28;82.45;95299.41;110007;1279;22348;-64
2023/04/05 06:16:23;;;;;;;11.90;8.00;;;;;;;1.36;82.30;95297.59;110051;1279;22198;-68
2023/04/05 06:27:42;;;;;;;9.90;7.00;;;;;;;1.37;81.95;95301.92;110064;1274;23193;-64
2023/04/05 06:31:30;;;;;;;9.80;6.60;;;;;;;1.33;81.68;95307.09;110016;1279;22230;-64
2023/04/05 06:38:49;;;;;;;8.70;7.20;;;;;;;1.07;81.83;95306.06;110115;1279;22147;-64
2023/04/05 06:42:38;;;;;;;10.30;7.50;;;;;;;0.94;81.77;95312.98;110116;1279;22162;-63
2023/04/05 06:50:01;;;;;;;8.90;6.40;;;;;;;0.82;82.11;95325.30;110197;1278;22921;-63
2023/04/05 06:53:51;;;;;;;11.90;8.40;;;;;;;0.86;82.64;95323.28;110215;1278;22158;-65
2023/04/05 07:01:29;;;;;;;16.00;10.10;;;;;;;0.97;82.61;95323.60;110213;1278;22638;-69
2023/04/05 07:05:08;;;;;;;14.50;8.80;;;;;;;1.02;82.55;95324.19;110224;1272;22370;-68
2023/04/05 07:08:57;;;;;;;7.40;5.60;;;;;;;1.08;82.53;95325.47;110211;1278;22146;-65
2023/04/05 07:12:46;;;;;;;8.40;6.30;;;;;;;1.09;81.95;95325.50;110173;1278;22842;-67
2023/04/05 07:16:41;;;;;;;13.20;9.20;;;;;;;1.06;82.05;95324.23;110143;1271;23059;-70
2023/04/05 07:20:22;;;;;;;15.80;9.70;;;;;;;1.14;81.78;95331.10;110291;1278;22190;-67
2023/04/05 07:24:11;;;;;;;17.10;11.80;;;;;;;1.16;82.10;95330.09;110302;1272;23231;-71
2023/04/05 07:27:52;;;;;;;;;;;;;;;;;;;;;
2023/04/05 07:31:42;;;;;;;18.30;11.90;;;;;;;1.18;82.09;95330.28;110209;1278;22121;-68
2023/04/05 07:35:23;;;;;;;;;;;;;;;;;;;;;
2023/04/05 07:39:24;;;;;;;;;;;;;;;;;;;;;
2023/04/05 07:43:02;;;;;;;22.20;13.40;;;;;;;0.93;82.03;95345.70;110087;1279;22238;-69
2023/04/05 07:46:43;;;;;;;;;;;;;;;;;;;;;
2023/04/05 07:58:18;;;;;;;15.00;9.60;;;;;;;0.87;82.87;95353.41;110007;1272;23080;-72
2023/04/05 08:02:07;;;;;;;13.70;8.70;;;;;;;0.79;82.56;95355.02;109967;1274;23195;-70
2023/04/05 08:05:49;;;;;;;13.70;8.90;;;;;;;0.70;83.03;95358.70;110172;1279;22980;-71
2023/04/05 08:09:31;;;;;;;13.20;8.10;;;;;;;0.69;83.23;95358.86;110077;1279;22236;-67
2023/04/05 08:13:20;;;;;;;14.10;9.10;;;;;;;0.74;83.32;95358.59;110091;1279;22834;-66
2023/04/05 08:28:47;;;;;;;12.40;8.60;;;;;;;1.18;82.85;95354.89;109995;1279;22176;-67
2023/04/05 08:32:12;;;;;;;11.00;7.40;;;;;;;1.31;81.86;95356.11;110095;1279;22412;-68
2023/04/05 08:35:59;;;;;;;;;;;;;;;;;;;;;
2023/04/05 08:39:40;;;;;;;;;;;;;;;;;;;;;
2023/04/05 08:47:22;;;;;;;11.80;8.50;;;;;;;1.86;79.59;95364.39;110413;1278;22264;-67
2023/04/05 08:51:12;;;;;;;14.90;9.90;;;;;;;1.79;79.30;95371.44;110314;1278;22119;-67
2023/04/05 08:55:01;;;;;;;17.00;10.60;;;;;;;1.85;79.85;95371.67;110302;1277;22125;-68
2023/04/05 08:58:52;;;;;;;14.70;9.30;;;;;;;1.94;79.97;95369.50;110309;1277;22109;-68
2023/04/05 09:02:28;;;;;;;11.60;9.10;;;;;;;2.08;79.44;95366.89;110256;1277;23038;-69
2023/04/05 09:06:10;;;;;;;12.40;9.00;;;;;;;2.18;78.98;95366.98;110168;1271;22259;-65
2023/04/05 09:09:39;;;;;;;14.50;8.60;;;;;;;2.25;78.65;95369.65;110132;1278;22326;-67
2023/04/05 09:13:50;;;;;;;13.90;9.70;;;;;;;2.39;78.03;95365.98;110279;1278;22116;-67
2023/04/05 09:21:30;;;;;;;11.80;8.20;;;;;;;2.56;78.10;95369.77;110309;1278;22134;-67
2023/04/05 09:25:30;;;;;;;11.80;8.80;;;;;;;2.61;76.86;95371.04;110284;1278;22174;-66
2023/04/05 09:29:25;;;;;;;11.30;8.10;;;;;;;2.51;76.61;95378.77;109964;1278;22112;-66
2023/04/05 09:33:14;;;;;;;12.90;9.90;;;;;;;2.55;77.20;95381.92;110190;1278;22112;-66
2023/04/05 09:37:07;;;;;;;11.80;8.30;;;;;;;2.52;76.45;95382.95;110173;1278;22107;-66
2023/04/05 09:48:37;;;;;;;11.00;8.50;;;;;;;2.56;77.34;95391.48;109956;1280;22771;-72
2023/04/05 09:52:04;;;;;;;11.00;8.00;;;;;;;2.78;76.87;95388.52;110070;1279;22148;-66
2023/04/05 09:56:12;;;;;;;11.70;8.00;;;;;;;2.84;76.04;95393.11;110081;1280;22160;-66
2023/04/05 09:59:54;;;;;;;10.00;7.40;;;;;;;2.90;75.81;95392.81;109997;1280;22134;-66
2023/04/05 10:03:44;;;;;;;14.50;9.70;;;;;;;2.96;75.87;95393.55;110168;1280;22257;-67
2023/04/05 10:15:23;;;;;;;;;;;;;;;;;;;;;
2023/04/05 10:19:01;;;;;;;15.20;10.10;;;;;;;3.21;74.75;95392.67;110053;1279;23040;-66
2023/04/05 10:22:48;;;;;;;17.20;10.80;;;;;;;3.08;74.28;95394.84;110157;1279;22795;-66
2023/04/05 10:26:35;;;;;;;;;;;;;;;;;;;;;
2023/04/05 10:30:25;;;;;;;13.40;9.90;;;;;;;3.07;74.38;95395.72;110208;1279;22134;-66
2023/04/05 10:34:17;;;;;;;15.10;10.60;;;;;;;3.05;74.57;95400.89;110196;1279;22158;-66
2023/04/05 10:41:50;;;;;;;12.60;9.10;;;;;;;3.00;73.95;95406.24;110175;1279;22187;-66
2023/04/05 10:45:14;;;;;;;;;;;;;;;;;;;;;
2023/04/05 10:53:05;;;;;;;12.10;9.50;;;;;;;2.62;74.65;95412.89;110183;1279;22164;-66
2023/04/05 10:56:55;;;;;;;14.30;9.90;;;;;;;2.52;74.88;95416.80;110066;1279;22113;-66
2023/04/05 11:00:45;;;;;;;16.00;10.30;;;;;;;2.45;75.18;95415.16;110190;1280;22187;-66
2023/04/05 11:08:45;;;;;;;22.50;12.40;;;;;;;2.24;75.63;95428.66;110179;1276;22336;-66
2023/04/05 11:12:28;;;;;;;18.90;11.60;;;;;;;2.17;76.35;95435.88;109926;1279;22176;-66
2023/04/05 11:16:29;;;;;;;19.10;12.50;;;;;;;2.23;76.35;95433.16;110104;1280;22821;-66
2023/04/05 11:28:00;;;;;;;;;;;;;;;;;;;;;
2023/04/05 11:31:58;;;;;;;12.30;9.40;;;;;;;2.81;76.34;95433.89;110161;1279;22112;-66
2023/04/05 11:35:46;;;;;;;14.10;8.70;;;;;;;3.06;76.09;95426.11;110178;1279;21986;-65
2023/04/05 11:39:45;;;;;;;;;;;;;;;;;;;;;
2023/04/05 11:43:23;;;;;;;13.00;9.70;;;;;;;3.40;74.33;95415.91;110267;1278;22133;-66
2023/04/05 11:47:12;;;;;;;13.80;9.20;;;;;;;3.55;74.52;95420.01;110168;1278;22105;-66
2023/04/05 11:54:48;;;;;;;;;;;;;;;;;;;;;
2023/04/05 11:58:39;;;;;;;10.60;7.30;;;;;;;3.93;72.71;95418.80;110128;1278;22335;-66
2023/04/05 12:02:28;;;;;;;11.30;8.60;;;;;;;4.03;73.34;95418.48;110272;1278;22111;-66
2023/04/05 12:06:25;;;;;;;12.70;9.30;;;;;;;4.23;72.91;95418.89;110270;1279;22141;-66
2023/04/05 12:10:14;;;;;;;12.50;9.20;;;;;;;4.31;70.85;95416.84;109951;1278;22113;-66
2023/04/05 12:18:15;;;;;;;8.00;6.80;;;;;;;4.39;70.62;95408.66;110140;1278;22116;-66
2023/04/05 12:21:29;;;;;;;;;;;;;;;;;;;;;
2023/04/05 12:24:47;;;;;;;;;;;;;;;3.86;69.83;95407.98;110150;1278;22405;-66
2023/04/05 12:32:40;;;;;;;9.40;7.10;;;;;;;3.75;71.85;95402.71;110146;1279;22242;-66
2023/04/05 12:36:28;;;;;;;8.20;7.00;;;;;;;3.62;72.19;95406.30;109744;1278;22120;-66
2023/04/05 12:40:17;;;;;;;8.90;7.00;;;;;;;3.68;73.08;95404.59;110108;1280;22136;-66
2023/04/05 12:51:29;;;;;;;11.00;7.40;;;;;;;3.98;71.36;95396.38;110059;1280;22159;-66
2023/04/05 12:55:22;;;;;;;9.00;7.00;;;;;;;4.15;69.48;95391.88;110122;1280;22116;-66
2023/04/05 12:59:14;;;;;;;;;;;;;;;;;;;;;
2023/04/05 13:02:47;;;;;;;8.70;6.50;;;;;;;4.64;69.23;95383.80;110195;1262;23123;-67
2023/04/05 13:06:47;;;;;;;;;;;;;;;;;;;;;
2023/04/05 13:10:08;;;;;;;10.60;9.50;;;;;;;4.98;68.57;95382.08;110248;1278;22358;-66
2023/04/05 13:14:23;;;;;;;7.40;5.70;;;;;;;4.95;66.29;95376.15;110156;1278;22142;-66
2023/04/05 13:21:29;;;;;;;9.20;6.70;;;;;;;5.15;66.27;95373.67;110089;1278;22564;-66
2023/04/05 13:25:00;;;;;;;;;;;;;;;;;;;;;
2023/04/05 13:28:48;;;;;;;9.80;7.10;;;;;;;5.38;66.32;95372.09;110123;1265;22111;-66
2023/04/05 13:32:37;;;;;;;7.50;5.90;;;;;;;5.37;64.67;95365.11;110242;1278;22266;-66
2023/04/05 13:36:27;;;;;;;7.10;6.30;;;;;;;5.54;66.83;95368.38;110237;1278;22126;-66
2023/04/05 13:40:17;;;;;;;8.10;7.00;;;;;;;5.74;66.76;95370.59;110134;1278;22138;-66
2023/04/05 13:44:06;;;;;;;9.10;7.20;;;;;;;5.82;65.63;95369.33;110253;1275;22138;-66
2023/04/05 13:47:48;;;;;;;7.00;6.10;;;;;;;5.64;65.37;95366.77;110158;1277;22175;-66
2023/04/05 13:51:35;;;;;;;;;;;;;;;;;;;;;
2023/04/05 14:02:58;;;;;;;7.30;5.50;;;;;;;5.38;66.86;95362.48;110146;1278;22127;-66
2023/04/05 14:06:29;;;;;;;;;;;;;;;;;;;;;
2023/04/05 14:10:11;;;;;;;7.60;6.50;;;;;;;5.13;66.50;95371.08;110151;1279;22163;-66
2023/04/05 14:14:00;;;;;;;8.40;6.70;;;;;;;4.99;66.86;95376.14;110111;1278;22175;-66
2023/04/05 14:17:38;;;;;;;;;;;;;;;;;;;;;
2023/04/05 14:21:12;;;;;;;7.30;6.00;;;;;;;4.64;67.29;95376.14;110220;1278;22599;-67
2023/04/05 14:25:02;;;;;;;7.30;6.30;;;;;;;4.58;68.15;95374.04;110124;1278;22109;-67
2023/04/05 14:28:50;;;;;;;10.50;6.60;;;;;;;4.56;68.36;95376.13;110113;1279;22282;-68
2023/04/05 14:36:38;;;;;;;8.20;5.70;;;;;;;4.61;67.66;95375.27;110228;1278;22854;-66
2023/04/05 14:47:54;;;;;;;10.40;6.60;;;;;;;4.47;69.22;95378.04;110116;1278;22127;-66
2023/04/05 14:55:16;;;;;;;9.70;7.30;;;;;;;4.52;69.38;95373.67;110148;1278;22195;-66
2023/04/05 14:59:05;;;;;;;13.30;9.30;;;;;;;4.49;69.21;95382.04;110154;1278;22177;-67
2023/04/05 15:02:55;;;;;;;7.20;6.00;;;;;;;4.44;69.39;95382.57;110120;1278;22841;-66
2023/04/05 15:06:38;;;;;;;8.90;7.20;;;;;;;4.33;67.87;95386.20;110118;1278;22124;-66
2023/04/05 15:10:22;;;;;;;;;;;;;;;;;;;;;
2023/04/05 15:14:01;;;;;;;11.50;8.00;;;;;;;4.25;68.34;95389.31;110165;1278;22141;-66
2023/04/05 15:17:33;;;;;;;;;;;;;;;;;;;;;
2023/04/05 15:21:00;;;;;;;;;;;;;;;;;;;;;
2023/04/05 15:28:14;;;;;;;;;;;;;;;;;;;;;
2023/04/05 15:35:40;;;;;;;;;;;;;;;;;;;;;
2023/04/05 15:39:11;;;;;;;;;;;;;;;;;;;;;
2023/04/05 15:43:01;;;;;;;5.40;4.10;;;;;;;4.19;68.90;95391.20;110145;1278;22154;-67
2023/04/05 15:46:41;;;;;;;4.90;4.10;;;;;;;4.04;68.37;95394.29;110073;1278;23094;-67
2023/04/05 15:50:30;;;;;;;6.20;4.30;;;;;;;3.99;68.70;95392.89;110156;1278;22108;-67
2023/04/05 15:58:02;;;;;;;5.50;4.10;;;;;;;3.83;68.53;95394.56;110089;1278;22144;-66
2023/04/05 16:01:51;;;;;;;4.90;4.30;;;;;;;3.73;68.70;95393.83;110120;1278;22287;-66
2023/04/05 16:05:40;;;;;;;4.90;4.40;;;;;;;3.63;69.07;95395.70;110168;1279;22116;-66
2023/04/05 16:13:18;;;;;;;4.60;3.20;;;;;;;3.60;69.59;95395.17;110124;1278;22133;-66
2023/04/05 16:17:07;;;;;;;4.90;3.70;;;;;;;3.54;69.73;95391.30;110147;1278;22104;-66
2023/04/05 16:20:49;;;;;;;15.50;9.10;;;;;;;3.56;70.05;95394.95;110137;1278;22799;-66
2023/04/05 16:24:38;;;;;;;16.20;8.80;;;;;;;3.52;70.89;95397.02;110248;1272;22139;-66
2023/04/05 16:28:16;;;;;;;6.90;5.00;;;;;;;3.47;71.77;95400.48;110235;1279;22192;-66
2023/04/05 16:35:45;;;;;;;9.40;4.60;;;;;;;3.57;72.80;95400.01;110155;1279;22111;-66
2023/04/05 16:39:34;;;;;;;6.20;4.40;;;;;;;3.59;72.84;95403.85;110219;1278;22792;-66
2023/04/05 16:43:22;;;;;;;5.90;4.80;;;;;;;3.45;72.66;95401.86;110118;1278;22129;-66
2023/04/05 16:47:11;;;;;;;5.80;4.50;;;;;;;3.40;74.09;95406.86;110137;1278;22881;-66
2023/04/05 16:51:00;;;;;;;7.20;5.80;;;;;;;3.36;73.45;95408.94;110165;1279;22357;-66
2023/04/05 16:54:49;;;;;;;9.60;7.00;;;;;;;3.26;74.03;95411.14;110194;1269;22163;-66
2023/04/05 16:58:32;;;;;;;5.80;4.30;;;;;;;3.17;73.89;95408.29;110157;1279;22106;-66
2023/04/05 17:02:21;;;;;;;4.90;3.70;;;;;;;3.16;74.50;95407.41;110274;1269;22115;-66
2023/04/05 17:06:12;;;;;;;5.80;4.30;;;;;;;3.08;74.31;95407.70;110252;1278;22904;-66
2023/04/05 17:09:52;;;;;;;11.60;6.70;;;;;;;2.90;74.52;95408.96;110143;1278;22214;-67
2023/04/05 17:13:49;;;;;;;19.50;11.50;;;;;;;2.84;74.86;95414.48;110261;1278;22170;-66
2023/04/05 17:20:47;;;;;;;10.00;6.90;;;;;;;2.79;75.19;95420.33;110095;1279;22876;-66
2023/04/05 17:24:29;;;;;;;34.80;17.40;;;;;;;2.79;74.33;95422.23;110134;1278;22629;-66
2023/04/05 17:28:18;;;;;;;38.20;22.70;;;;;;;2.79;74.21;95420.87;110125;1279;22098;-66
2023/04/05 17:31:51;;;;;;;7.40;4.80;;;;;;;2.88;75.32;95421.80;110255;1278;22193;-66
2023/04/05 17:35:33;;;;;;;12.90;9.10;;;;;;;2.86;74.32;95419.69;110258;1278;22134;-66
2023/04/05 17:39:15;;;;;;;6.40;4.60;;;;;;;2.88;74.47;95417.81;105717;1277;5972020;-66
2023/04/05 17:42:50;;;;;;;15.60;12.80;;;;;;;2.93;75.23;95418.36;110318;1278;22340;-66
2023/04/05 17:46:39;;;;;;;5.20;4.40;;;;;;;2.90;74.02;95419.73;110277;1278;22812;-66
2023/04/05 17:50:38;;;;;;;4.10;3.20;;;;;;;2.87;74.89;95424.75;110305;1278;22124;-66
2023/04/05 17:58:18;;;;;;;5.10;3.50;;;;;;;2.75;75.03;95432.45;110238;1278;22114;-66
2023/04/05 18:02:06;;;;;;;8.50;5.70;;;;;;;2.66;73.12;95430.81;110238;1278;22829;-66
2023/04/05 18:05:55;;;;;;;7.40;4.20;;;;;;;2.51;71.77;95435.02;110288;1278;22127;-66
2023/04/05 18:09:44;;;;;;;5.60;2.80;;;;;;;2.45;72.29;95434.78;110144;1278;22198;-66
2023/04/05 18:13:26;;;;;;;9.00;5.10;;;;;;;2.42;71.32;95434.91;110237;1278;22166;-66
2023/04/05 18:17:09;;;;;;;9.40;6.00;;;;;;;2.38;71.77;95436.28;110212;1278;22117;-66
2023/04/05 18:24:46;;;;;;;10.10;5.30;;;;;;;2.40;71.54;95436.46;110256;1278;22319;-66
2023/04/05 18:28:35;;;;;;;12.00;7.20;;;;;;;2.40;72.64;95440.98;110263;1278;22128;-67
2023/04/05 18:32:27;;;;;;;17.50;9.70;;;;;;;2.45;73.45;95440.34;110257;1278;22129;-66
2023/04/05 18:39:57;;;;;;;19.80;12.40;;;;;;;2.44;71.15;95444.48;110360;1278;22682;-67
2023/04/05 18:51:26;;;;;;;8.90;6.30;;;;;;;2.32;71.03;95436.90;110232;1278;22216;-66
2023/04/05 18:55:25;;;;;;;;;;;;;;;;;;;;;
2023/04/05 18:59:05;;;;;;;9.50;6.00;;;;;;;2.34;69.87;95439.35;110366;1278;22118;-66
2023/04/05 19:02:53;;;;;;;16.60;10.90;;;;;;;2.32;69.89;95431.86;110271;1278;22092;-66
2023/04/05 19:06:42;;;;;;;6.70;4.70;;;;;;;2.30;68.86;95428.20;110381;1278;22116;-66
2023/04/05 19:10:31;;;;;;;5.50;4.20;;;;;;;2.29;68.38;95424.20;110237;1278;22149;-66
2023/04/05 19:14:20;;;;;;;6.30;4.10;;;;;;;2.34;69.54;95427.03;110224;1278;22552;-66
2023/04/05 19:18:07;;;;;;;;;;;;;;;;;;;;;
2023/04/05 19:25:48;;;;;;;;;;;;;;;;;;;;;
2023/04/05 19:29:09;;;;;;;19.70;11.00;;;;;;;2.29;68.00;95415.88;110223;1278;22290;-66
2023/04/05 19:32:59;;;;;;;7.00;5.20;;;;;;;2.26;67.99;95417.05;110304;1278;22206;-66
2023/04/05 19:36:30;;;;;;;6.40;4.70;;;;;;;2.26;67.73;95419.99;110332;1278;22188;-65
2023/04/05 19:39:55;;;;;;;;;;;;;;;;;;;;;
2023/04/05 19:43:39;;;;;;;6.80;4.30;;;;;;;2.21;67.47;95419.25;110363;1278;22156;-66
2023/04/05 19:51:13;;;;;;;4.10;2.80;;;;;;;2.13;67.67;95420.04;110228;1278;22152;-66
2023/04/05 19:55:01;;;;;;;7.30;4.10;;;;;;;2.06;67.93;95414.59;110332;1278;22168;-66
2023/04/05 20:02:22;;;;;;;7.00;5.00;;;;;;;2.06;68.45;95409.04;110267;1278;22105;-66
2023/04/05 20:13:49;;;;;;;;;;;;;;;;;;;;;
2023/04/05 20:17:41;;;;;;;4.70;3.60;;;;;;;2.13;67.31;95394.36;110263;1278;22133;-66
2023/04/05 20:25:13;;;;;;;3.90;2.80;;;;;;;2.25;68.25;95394.48;110191;1278;22421;-66
2023/04/05 20:32:57;;;;;;;5.50;3.90;;;;;;;2.22;68.34;95392.73;110380;1278;22160;-66
2023/04/05 20:36:40;;;;;;;6.60;4.20;;;;;;;2.20;67.80;95395.46;110257;1270;22180;-66
2023/04/05 20:40:29;;;;;;;11.30;6.90;;;;;;;2.21;68.38;95395.83;110235;1278;22098;-66
2023/04/05 20:47:50;;;;;;;;;;;;;;;;;;;;;
2023/04/05 20:51:40;;;;;;;4.70;3.60;;;;;;;2.12;67.82;95401.46;110369;1278;22172;-66
2023/04/05 20:55:32;;;;;;;6.10;4.10;;;;;;;2.09;67.94;95403.52;110250;1278;22142;-66
2023/04/05 21:03:09;;;;;;;6.10;3.50;;;;;;;1.92;64.51;95399.69;110329;1278;22134;-66
2023/04/05 21:06:40;;;;;;;;;;;;;;;;;;;;;
2023/04/05 21:14:09;;;;;;;6.00;3.70;;;;;;;1.74;64.67;95405.70;110094;1278;22350;-66
2023/04/05 21:18:23;;;;;;;8.40;4.40;;;;;;;1.63;64.24;95401.58;110401;1278;22763;-67
2023/04/05 21:25:11;;;;;;;;;;;;;;;;;;;;;
2023/04/05 21:29:00;;;;;;;6.30;4.40;;;;;;;1.43;64.56;95401.48;110247;1278;22916;-66
2023/04/05 21:32:50;;;;;;;5.60;4.10;;;;;;;1.42;66.38;95395.42;110380;1277;22085;-67
2023/04/05 21:44:10;;;;;;;7.30;4.80;;;;;;;1.43;66.15;95399.58;110351;1278;22162;-66
2023/04/05 21:47:59;;;;;;;5.60;3.60;;;;;;;1.42;66.34;95402.36;110231;1278;22968;-66
2023/04/05 21:51:41;;;;;;;7.00;4.60;;;;;;;1.41;67.05;95404.41;110201;1278;22122;-66
2023/04/05 21:55:30;;;;;;;7.00;4.60;;;;;;;1.38;66.47;95414.77;110266;1277;22211;-66
2023/04/05 21:59:19;;;;;;;8.70;5.10;;;;;;;1.34;66.85;95418.00;110283;1278;22916;-66
2023/04/05 22:03:09;;;;;;;8.70;4.60;;;;;;;1.33;67.19;95418.52;110222;1278;22117;-66
2023/04/05 22:06:57;;;;;;;6.40;4.90;;;;;;;1.32;67.32;95419.38;110312;1278;22200;-66
2023/04/05 22:10:36;;;;;;;7.30;4.30;;;;;;;1.29;66.77;95419.67;110225;1278;22952;-66
2023/04/05 22:13:55;;;;;;;;;;;;;;;;;;;;;
2023/04/05 22:25:17;;;;;;;6.60;3.90;;;;;;;1.23;67.97;95402.26;110218;1278;22107;-66
2023/04/05 22:28:55;;;;;;;5.00;3.40;;;;;;;1.17;67.63;95402.52;110282;1277;22142;-66
2023/04/05 22:36:34;;;;;;;5.90;3.40;;;;;;;1.08;66.82;95394.08;110246;1278;23085;-66
2023/04/05 22:40:25;;;;;;;6.60;3.80;;;;;;;1.03;68.23;95390.70;110267;1278;22103;-66
2023/04/05 22:44:12;;;;;;;4.90;3.30;;;;;;;1.01;68.91;95383.75;110252;1278;22339;-66
2023/04/05 22:48:01;;;;;;;5.40;3.40;;;;;;;1.01;70.64;95383.06;110311;1278;22116;-66
2023/04/05 22:59:21;;;;;;;;;;;;;;;;;;;;;
2023/04/05 23:03:00;;;;;;;5.70;3.60;;;;;;;0.93;69.26;95356.63;110281;1278;22190;-66
2023/04/05 23:11:04;;;;;;;5.90;3.50;;;;;;;0.95;72.47;95347.12;110088;1278;22194;-66
2023/04/05 23:14:26;;;;;;;;;;;;;;;;;;;;;
2023/04/05 23:18:21;;;;;;;5.50;2.90;;;;;;;0.93;72.59;95341.03;110393;1278;23042;-66
2023/04/05 23:22:05;;;;;;;6.90;4.40;;;;;;;0.90;71.17;95335.80;110286;1278;22535;-66
2023/04/05 23:25:48;;;;;;;7.40;4.60;;;;;;;0.86;70.09;95328.98;110223;1277;22095;-66
2023/04/05 23:29:28;;;;;;;;;;;;;;;;;;;;;
2023/04/05 23:44:42;;;;;;;8.50;4.50;;;;;;;0.85;70.13;95312.18;110083;1279;22315;-66
2023/04/05 23:48:31;;;;;;;6.50;4.60;;;;;;;0.88;69.22;95309.63;110092;1279;22128;-66
2023/04/05 23:52:20;;;;;;;7.20;4.70;;;;;;;0.88;69.03;95307.88;110085;1279;22921;-65
2023/04/05 23:56:10;;;;;;;6.60;4.30;;;;;;;0.89;69.11;95305.30;110077;1279;22819;-66
2023/04/05 23:59:40;;;;;;;7.90;4.20;;;;;;;0.92;69.12;95297.73;110053;1279;22865;-66
